createdAt,value
2019-04-11T00:04:48.829Z,18.15
2019-04-11T00:11:26.020Z,20.60
2019-04-11T00:13:57.795Z,19.35
2019-04-11T00:16:28.947Z,18.60
2019-04-11T00:18:59.289Z,18.45
2019-04-11T00:21:30.629Z,16.80
2019-04-11T00:24:01.229Z,18.50
2019-04-11T00:26:32.602Z,17.20
2019-04-11T00:29:03.942Z,16.15
2019-04-11T00:31:34.305Z,21.90
2019-04-11T00:34:04.798Z,19.98
2019-04-11T00:36:35.015Z,15.70
2019-04-11T00:39:09.248Z,14.40
2019-04-11T00:41:39.774Z,17.37
2019-04-11T00:44:10.413Z,18.05
2019-04-11T00:46:40.740Z,18.73
2019-04-11T00:49:11.026Z,15.80
2019-04-11T00:51:42.343Z,18.62
2019-04-11T00:54:12.568Z,15.77
2019-04-11T00:56:42.921Z,15.68
2019-04-11T00:59:14.435Z,16.42
2019-04-11T01:01:44.990Z,20.02
2019-04-11T01:04:15.872Z,16.60
2019-04-11T01:06:46.711Z,17.35
2019-04-11T01:09:18.002Z,16.82
2019-04-11T01:11:48.409Z,14.98
2019-04-11T01:14:19.815Z,16.82
2019-04-11T01:16:52.711Z,17.25
2019-04-11T01:19:25.178Z,18.23
2019-04-11T01:21:57.920Z,15.03
2019-04-11T01:24:29.147Z,17.60
2019-04-11T01:27:01.474Z,17.50
2019-04-11T01:29:33.561Z,14.73
2019-04-11T01:32:06.666Z,19.55
2019-04-11T01:34:37.602Z,16.70
2019-04-11T01:37:07.875Z,14.73
2019-04-11T01:39:43.396Z,17.13
2019-04-11T01:42:16.157Z,18.35
2019-04-11T01:44:47.431Z,18.60
2019-04-11T01:47:20.486Z,14.03
2019-04-11T01:49:50.842Z,17.82
2019-04-11T01:52:22.450Z,15.30
2019-04-11T01:54:52.834Z,16.90
2019-04-11T01:57:23.111Z,16.40
2019-04-11T01:59:53.458Z,16.45
2019-04-11T02:02:26.426Z,17.37
2019-04-11T02:05:01.231Z,16.23
2019-04-11T02:07:31.768Z,18.10
2019-04-11T02:10:02.516Z,15.78
2019-04-11T02:12:33.143Z,15.70
2019-04-11T02:15:04.369Z,17.45
2019-04-11T02:17:34.947Z,17.92
2019-04-11T02:20:09.153Z,13.22
2019-04-11T02:22:44.026Z,16.07
2019-04-11T02:25:28.328Z,12.98
2019-04-11T02:28:00.466Z,17.32
2019-04-11T02:30:31.381Z,13.32
2019-04-11T02:33:02.009Z,15.83
2019-04-11T02:35:32.638Z,14.28
2019-04-11T02:38:03.041Z,14.75
2019-04-11T02:40:33.378Z,18.82
2019-04-11T02:43:04.983Z,14.00
2019-04-11T02:45:45.219Z,16.25
2019-04-11T02:48:11.186Z,15.75
2019-04-11T02:50:41.478Z,14.75
2019-04-11T02:53:14.652Z,13.00
2019-04-11T02:55:46.551Z,14.53
2019-04-11T02:58:18.664Z,13.05
2019-04-11T03:00:50.388Z,14.28
2019-04-11T03:03:23.230Z,12.98
2019-04-11T03:05:55.393Z,13.50
2019-04-11T03:08:26.785Z,11.40
2019-04-11T03:10:59.388Z,15.38
2019-04-11T03:13:29.856Z,13.72
2019-04-11T03:16:18.787Z,13.20
2019-04-11T03:18:53.050Z,12.73
2019-04-11T03:21:12.838Z,13.43
2019-04-11T03:23:37.566Z,14.80
2019-04-11T03:26:10.289Z,13.90
2019-04-11T03:28:46.266Z,14.18
2019-04-11T03:31:50.278Z,13.38
2019-04-11T03:37:06.683Z,12.30
2019-04-11T03:39:11.802Z,15.67
2019-04-11T03:41:38.460Z,13.03
2019-04-11T03:44:03.935Z,12.73
2019-04-11T03:46:43.419Z,13.03
2019-04-11T03:49:06.353Z,15.00
2019-04-11T03:51:33.984Z,13.62
2019-04-11T03:54:05.100Z,12.70
2019-04-11T03:56:37.221Z,12.15
2019-04-11T03:59:10.302Z,11.68
2019-04-11T04:01:39.988Z,14.05
2019-04-11T04:04:11.287Z,12.55
2019-04-11T04:06:45.834Z,17.82
2019-04-11T04:09:17.100Z,15.83
2019-04-11T04:11:50.775Z,14.65
2019-04-11T04:14:36.958Z,13.00
2019-04-11T04:17:27.781Z,15.72
2019-04-11T04:20:02.056Z,12.65
2019-04-11T04:22:42.115Z,12.98
2019-04-11T04:25:14.297Z,10.90
2019-04-11T04:27:45.100Z,12.33
2019-04-11T04:30:17.623Z,12.63
2019-04-11T04:32:49.276Z,10.70
2019-04-11T04:35:22.131Z,12.20
2019-04-11T04:37:52.121Z,11.83
2019-04-11T04:40:35.566Z,10.38
2019-04-11T04:42:56.732Z,14.13
2019-04-11T04:45:27.717Z,11.57
2019-04-11T04:48:03.444Z,11.73
2019-04-11T04:50:30.945Z,10.58
2019-04-11T04:53:02.746Z,15.08
2019-04-11T04:55:34.636Z,13.13
2019-04-11T04:58:05.177Z,12.88
2019-04-11T05:00:37.661Z,12.53
2019-04-11T05:03:09.867Z,10.58
2019-04-11T05:05:42.418Z,11.88
2019-04-11T05:08:14.372Z,12.03
2019-04-11T05:10:46.977Z,12.68
2019-04-11T05:13:17.393Z,12.15
2019-04-11T05:15:48.982Z,11.78
2019-04-11T05:18:20.643Z,10.65
2019-04-11T05:20:52.651Z,15.50
2019-04-11T05:23:23.559Z,10.48
2019-04-11T05:25:55.020Z,12.43
2019-04-11T05:28:27.707Z,11.47
2019-04-11T05:30:58.358Z,14.10
2019-04-11T05:33:29.402Z,10.90
2019-04-11T05:36:00.500Z,13.15
2019-04-11T05:38:31.011Z,10.93
2019-04-11T05:41:02.137Z,12.30
2019-04-11T05:43:37.315Z,13.60
2019-04-11T05:46:21.888Z,11.83
2019-04-11T05:48:45.229Z,11.18
2019-04-11T05:51:19.593Z,11.85
2019-04-11T05:53:49.716Z,16.15
2019-04-11T05:56:21.799Z,13.22
2019-04-11T05:58:53.688Z,10.82
2019-04-11T06:01:31.316Z,11.25
2019-04-11T06:04:06.217Z,10.95
2019-04-11T06:06:40.190Z,13.35
2019-04-11T06:09:16.318Z,13.98
2019-04-11T06:11:56.472Z,13.32
2019-04-11T06:14:31.240Z,14.53
2019-04-11T06:17:03.231Z,12.82
2019-04-11T06:19:48.001Z,13.78
2019-04-11T06:22:19.827Z,13.75
2019-04-11T06:24:54.492Z,22.90
2019-04-11T06:27:30.373Z,11.48
2019-04-11T06:30:09.555Z,14.40
2019-04-11T06:32:58.367Z,13.13
2019-04-11T06:35:46.564Z,11.93
2019-04-11T06:38:24.695Z,12.33
2019-04-11T06:41:02.572Z,13.00
2019-04-11T06:43:40.705Z,12.88
2019-04-11T06:46:13.232Z,13.32
2019-04-11T06:49:02.406Z,11.78
2019-04-11T06:51:35.722Z,15.00
2019-04-11T06:54:19.486Z,16.10
2019-04-11T06:56:52.095Z,13.98
2019-04-11T06:59:24.235Z,12.60
2019-04-11T07:02:07.513Z,12.75
2019-04-11T07:04:38.489Z,14.78
2019-04-11T07:07:11.066Z,10.82
2019-04-11T07:09:43.373Z,12.88
2019-04-11T07:12:15.580Z,14.00
2019-04-11T07:14:47.652Z,12.70
2019-04-11T07:17:36.978Z,11.80
2019-04-11T07:20:10.819Z,17.60
2019-04-11T07:22:59.534Z,11.60
2019-04-11T07:25:47.699Z,8.83
2019-04-11T07:28:35.775Z,14.55
2019-04-11T07:31:07.726Z,10.20
2019-04-11T07:33:49.344Z,10.32
2019-04-11T07:36:38.390Z,10.05
2019-04-11T07:39:12.712Z,12.23
2019-04-11T07:41:45.530Z,12.58
2019-04-11T07:44:17.800Z,10.57
2019-04-11T07:46:58.701Z,13.35
2019-04-11T07:49:42.865Z,14.43
2019-04-11T07:52:15.542Z,12.20
2019-04-11T07:54:45.936Z,9.13
2019-04-11T07:57:20.640Z,11.47
2019-04-11T08:00:05.986Z,12.17
2019-04-11T08:02:57.212Z,9.80
2019-04-11T08:05:46.718Z,9.75
2019-04-11T08:08:21.500Z,9.70
2019-04-11T08:10:56.699Z,9.48
2019-04-11T08:13:28.621Z,10.18
2019-04-11T08:16:17.970Z,10.48
2019-04-11T08:18:50.932Z,8.98
2019-04-11T08:21:38.899Z,8.65
2019-04-11T08:24:11.998Z,12.50
2019-04-11T08:26:46.884Z,8.28
2019-04-11T08:29:18.538Z,8.13
2019-04-11T08:32:09.513Z,7.85
2019-04-11T08:34:41.815Z,9.43
2019-04-11T08:37:29.704Z,7.35
2019-04-11T08:40:00.008Z,13.45
2019-04-11T08:42:40.918Z,9.25
2019-04-11T08:45:13.080Z,8.13
2019-04-11T08:47:49.249Z,9.15
2019-04-11T08:53:00.327Z,8.13
2019-04-11T08:55:44.593Z,8.68
2019-04-11T08:58:06.615Z,9.40
2019-04-11T09:00:40.185Z,12.33
2019-04-11T09:03:21.761Z,6.72
2019-04-11T09:05:56.880Z,11.30
2019-04-11T09:08:34.262Z,11.05
2019-04-11T09:11:06.766Z,12.18
2019-04-11T09:13:39.718Z,7.90
2019-04-11T09:16:15.229Z,13.35
2019-04-11T09:18:46.115Z,9.70
2019-04-11T09:21:34.152Z,14.75
2019-04-11T09:24:06.212Z,7.33
2019-04-11T09:26:54.111Z,8.73
2019-04-11T09:29:26.175Z,10.75
2019-04-11T09:32:14.259Z,11.25
2019-04-11T09:34:46.216Z,9.53
2019-04-11T09:37:18.780Z,7.72
2019-04-11T09:39:51.177Z,8.20
2019-04-11T09:42:30.296Z,10.75
2019-04-11T09:45:03.462Z,8.43
2019-04-11T09:47:51.984Z,7.97
2019-04-11T09:50:26.695Z,10.35
2019-04-11T09:52:58.809Z,11.23
2019-04-11T09:55:37.497Z,9.13
2019-04-11T09:58:09.504Z,9.98
2019-04-11T10:00:57.619Z,9.30
2019-04-11T10:03:29.802Z,10.82
2019-04-11T10:06:16.802Z,8.83
2019-04-11T10:08:49.097Z,10.33
2019-04-11T10:11:36.322Z,7.87
2019-04-11T10:14:11.350Z,9.38
2019-04-11T10:17:00.254Z,8.20
2019-04-11T10:19:38.255Z,8.63
2019-04-11T10:22:27.058Z,7.93
2019-04-11T10:24:59.043Z,8.37
2019-04-11T10:27:34.080Z,6.87
2019-04-11T10:30:10.294Z,6.75
2019-04-11T10:32:43.369Z,9.35
2019-04-11T10:35:34.461Z,6.28
2019-04-11T10:38:06.834Z,10.93
2019-04-11T10:40:55.211Z,8.18
2019-04-11T10:43:26.549Z,7.33
2019-04-11T10:46:01.366Z,6.72
2019-04-11T10:48:39.331Z,8.38
2019-04-11T10:51:06.954Z,8.83
2019-04-11T10:53:37.483Z,8.25
2019-04-11T10:56:12.393Z,8.53
2019-04-11T10:58:47.086Z,6.80
2019-04-11T11:01:21.958Z,9.65
2019-04-11T11:04:07.378Z,6.42
2019-04-11T11:06:37.960Z,7.67
2019-04-11T11:09:26.208Z,6.10
2019-04-11T11:12:13.336Z,8.15
2019-04-11T11:14:56.952Z,6.53
2019-04-11T11:18:11.648Z,8.73
2019-04-11T11:20:39.337Z,6.95
2019-04-11T11:23:24.696Z,9.90
2019-04-11T11:26:02.803Z,6.65
2019-04-11T11:28:34.809Z,7.28
2019-04-11T11:31:07.428Z,6.80
2019-04-11T11:33:38.606Z,7.10
2019-04-11T11:36:13.395Z,5.95
2019-04-11T11:38:48.124Z,6.13
2019-04-11T11:41:36.510Z,5.83
2019-04-11T11:44:09.529Z,7.25
2019-04-11T11:46:44.674Z,7.43
2019-04-11T11:49:19.168Z,7.43
2019-04-11T11:51:49.770Z,8.40
2019-04-11T11:54:22.121Z,9.37
2019-04-11T11:56:52.411Z,8.43
2019-04-11T11:59:25.114Z,6.08
2019-04-11T12:02:06.441Z,13.60
2019-04-11T12:04:42.230Z,10.17
2019-04-11T12:07:16.972Z,7.97
2019-04-11T12:10:04.970Z,5.70
2019-04-11T12:12:46.439Z,7.30
2019-04-11T12:15:30.510Z,7.45
2019-04-11T12:18:11.113Z,8.93
2019-04-11T12:20:59.277Z,7.67
2019-04-11T12:23:46.610Z,11.15
2019-04-11T12:26:10.949Z,9.85
2019-04-11T12:28:54.200Z,7.54
2019-04-11T12:31:32.107Z,11.10
2019-04-11T12:34:18.663Z,7.22
2019-04-11T12:36:50.915Z,7.23
2019-04-11T12:39:39.200Z,10.68
2019-04-11T12:42:11.130Z,8.08
2019-04-11T12:44:59.655Z,9.80
2019-04-11T12:47:32.080Z,7.75
2019-04-11T12:50:20.090Z,6.13
2019-04-11T12:52:57.737Z,9.50
2019-04-11T12:55:45.748Z,7.95
2019-04-11T12:58:20.732Z,10.63
2019-04-11T13:00:52.664Z,6.93
2019-04-11T13:03:24.593Z,8.20
2019-04-11T13:05:56.537Z,8.28
2019-04-11T13:08:46.934Z,15.32
2019-04-11T13:11:18.857Z,7.26
2019-04-11T13:13:56.453Z,7.62
2019-04-11T13:16:28.108Z,7.35
2019-04-11T13:19:17.934Z,9.60
2019-04-11T13:21:52.582Z,7.60
2019-04-11T13:24:27.014Z,7.25
2019-04-11T13:27:04.775Z,7.15
2019-04-11T13:29:45.650Z,7.47
2019-04-11T13:32:35.729Z,6.47
2019-04-11T13:35:09.887Z,10.48
2019-04-11T13:40:31.210Z,7.80
2019-04-11T13:43:19.055Z,7.30
2019-04-11T13:45:50.993Z,6.72
2019-04-11T13:48:38.899Z,7.27
2019-04-11T13:51:28.801Z,7.10
2019-04-11T13:54:06.837Z,8.33
2019-04-11T13:56:54.742Z,7.42
2019-04-11T13:59:32.785Z,13.08
2019-04-11T14:02:16.889Z,10.90
2019-04-11T14:05:03.610Z,13.93
2019-04-11T14:07:34.079Z,9.90
2019-04-11T14:10:07.127Z,7.17
2019-04-11T14:12:38.529Z,7.78
2019-04-11T14:15:11.062Z,8.83
2019-04-11T14:17:59.545Z,7.85
2019-04-11T14:20:31.539Z,9.87
2019-04-11T14:23:03.556Z,6.20
2019-04-11T14:25:52.413Z,6.97
2019-04-11T14:28:24.478Z,6.70
2019-04-11T14:30:58.964Z,8.40
2019-04-11T14:33:30.899Z,11.97
2019-04-11T14:36:05.347Z,10.66
2019-04-11T14:38:45.410Z,7.40
2019-04-11T14:41:19.339Z,7.50
2019-04-11T14:43:54.148Z,9.68
2019-04-11T14:46:44.371Z,7.53
2019-04-11T14:49:14.725Z,10.70
2019-04-11T14:51:46.862Z,9.08
2019-04-11T14:54:18.724Z,7.00
2019-04-11T14:56:52.419Z,8.80
2019-04-11T14:59:24.970Z,6.97
2019-04-11T15:01:56.947Z,8.00
2019-04-11T15:04:43.641Z,7.72
2019-04-11T15:07:15.627Z,7.42
2019-04-11T15:09:50.310Z,11.33
2019-04-11T15:14:59.184Z,7.42
2019-04-11T15:17:33.679Z,7.00
2019-04-11T15:20:13.303Z,7.87
2019-04-11T15:22:47.807Z,9.07
2019-04-11T15:25:25.567Z,8.15
2019-04-11T15:28:03.520Z,8.17
2019-04-11T15:30:35.457Z,12.23
2019-04-11T15:33:23.503Z,7.50
2019-04-11T15:35:57.669Z,7.44
2019-04-11T15:38:34.803Z,7.00
2019-04-11T15:41:06.732Z,8.10
2019-04-11T15:43:54.957Z,9.48
2019-04-11T15:46:26.884Z,7.55
2019-04-11T15:49:21.270Z,7.00
2019-04-11T15:51:48.725Z,6.28
2019-04-11T15:54:37.254Z,7.87
2019-04-11T15:57:12.231Z,6.95
2019-04-11T15:59:44.031Z,6.87
2019-04-11T16:02:18.980Z,10.43
2019-04-11T16:07:37.371Z,10.17
2019-04-11T16:10:11.718Z,6.50
2019-04-11T16:15:37.969Z,6.58
2019-04-11T16:18:15.982Z,7.20
2019-04-11T16:20:50.697Z,9.68
2019-04-11T16:23:28.018Z,7.23
2019-04-11T16:25:58.296Z,7.05
2019-04-11T16:28:42.119Z,6.80
2019-04-11T16:31:12.395Z,8.38
2019-04-11T16:33:46.162Z,6.83
2019-04-11T16:36:17.941Z,6.90
2019-04-11T16:39:05.163Z,6.24
2019-04-11T16:41:49.093Z,7.90
2019-04-11T16:44:25.144Z,9.63
2019-04-11T16:47:08.308Z,7.25
2019-04-11T16:49:38.279Z,7.22
2019-04-11T16:52:08.637Z,6.90
2019-04-11T16:54:39.926Z,6.60
2019-04-11T16:57:13.561Z,9.70
2019-04-11T16:59:42.659Z,6.92
2019-04-11T17:02:12.937Z,12.30
2019-04-11T17:04:43.215Z,6.78
2019-04-11T17:07:15.144Z,6.77
2019-04-11T17:09:49.749Z,7.20
2019-04-11T17:12:20.031Z,9.00
2019-04-11T17:14:50.316Z,7.58
2019-04-11T17:17:20.599Z,7.65
2019-04-11T17:19:51.217Z,10.37
2019-04-11T17:22:21.504Z,8.08
2019-04-11T17:24:51.779Z,6.95
2019-04-11T17:27:23.190Z,6.55
2019-04-11T17:29:55.406Z,7.28
2019-04-11T17:32:26.626Z,7.35
2019-04-11T17:34:56.956Z,9.13
2019-04-11T17:37:27.264Z,7.60
2019-04-11T17:39:57.550Z,6.47
2019-04-11T17:42:27.853Z,6.15
2019-04-11T17:44:58.137Z,9.35
2019-04-11T17:47:28.418Z,8.78
2019-04-11T17:49:59.655Z,7.50
2019-04-11T17:52:29.982Z,11.30
2019-04-11T17:55:00.361Z,14.13
2019-04-11T17:57:30.636Z,7.10
2019-04-11T18:00:00.916Z,15.58
2019-04-11T18:02:31.207Z,7.12
2019-04-11T18:05:01.492Z,5.90
2019-04-11T18:07:31.773Z,8.68
2019-04-11T18:10:03.337Z,6.75
2019-04-11T18:12:34.612Z,5.85
2019-04-11T18:15:08.753Z,6.70
2019-04-11T18:17:40.815Z,6.83
2019-04-11T18:20:11.769Z,7.97
2019-04-11T18:22:43.717Z,8.05
2019-04-11T18:25:16.455Z,7.92
2019-04-11T18:27:51.646Z,7.95
2019-04-11T18:30:23.289Z,6.80
2019-04-11T18:32:52.905Z,8.75
2019-04-11T18:35:23.190Z,9.10
2019-04-11T18:37:53.966Z,8.30
2019-04-11T18:40:24.306Z,8.60
2019-04-11T18:42:54.586Z,9.03
2019-04-11T18:45:24.984Z,7.12
2019-04-11T18:47:55.264Z,7.80
2019-04-11T18:50:25.614Z,8.95
2019-04-11T18:52:59.304Z,8.10
2019-04-11T18:55:27.970Z,6.20
2019-04-11T18:57:58.236Z,9.90
2019-04-11T19:00:29.182Z,6.85
2019-04-11T19:03:00.208Z,8.00
2019-04-11T19:05:31.609Z,8.30
2019-04-11T19:08:01.881Z,7.72
2019-04-11T19:10:32.886Z,8.20
2019-04-11T19:13:03.373Z,8.68
2019-04-11T19:15:33.649Z,7.42
2019-04-11T19:18:06.566Z,8.18
2019-04-11T19:20:36.192Z,9.50
2019-04-11T19:23:07.919Z,12.10
2019-04-11T19:25:44.343Z,7.28
2019-04-11T19:28:11.561Z,8.23
2019-04-11T19:30:42.624Z,7.97
2019-04-11T19:33:12.989Z,7.33
2019-04-11T19:35:43.554Z,7.23
2019-04-11T19:38:27.718Z,9.68
2019-04-11T19:40:58.006Z,6.97
2019-04-11T19:43:28.343Z,8.33
2019-04-11T19:45:58.883Z,8.78
2019-04-11T19:48:29.221Z,10.05
2019-04-11T19:51:00.596Z,7.15
2019-04-11T19:53:33.024Z,9.53
2019-04-11T19:56:13.279Z,6.77
2019-04-11T19:58:43.524Z,8.13
2019-04-11T20:01:14.146Z,7.02
2019-04-11T20:03:44.431Z,9.13
2019-04-11T20:06:14.677Z,7.08
2019-04-11T20:08:44.949Z,6.65
2019-04-11T20:11:15.283Z,10.05
2019-04-11T20:13:45.564Z,7.03
2019-04-11T20:16:15.836Z,5.83
2019-04-11T20:18:51.282Z,8.35
2019-04-11T20:21:18.085Z,7.25
2019-04-11T20:23:48.354Z,7.55
2019-04-11T20:26:20.944Z,7.27
2019-04-11T20:28:51.572Z,7.40
2019-04-11T20:31:22.017Z,8.03
2019-04-11T20:33:52.282Z,7.87
2019-04-11T20:36:32.923Z,7.20
2019-04-11T20:38:54.765Z,7.35
2019-04-11T20:41:25.214Z,8.10
2019-04-11T20:43:56.944Z,9.25
2019-04-11T20:46:29.126Z,9.78
2019-04-11T20:48:59.746Z,9.35
2019-04-11T20:51:30.014Z,8.85
2019-04-11T20:54:00.592Z,7.47
2019-04-11T20:56:30.864Z,7.70
2019-04-11T20:59:01.127Z,8.78
2019-04-11T21:01:32.414Z,8.14
2019-04-11T21:04:04.664Z,11.35
2019-04-11T21:06:34.687Z,8.30
2019-04-11T21:09:08.142Z,6.25
2019-04-11T21:11:38.475Z,6.50
2019-04-11T21:14:08.744Z,6.33
2019-04-11T21:16:39.956Z,8.65
2019-04-11T21:19:10.249Z,6.47
2019-04-11T21:21:40.578Z,6.72
2019-04-11T21:24:10.873Z,6.25
2019-04-11T21:26:41.133Z,8.38
2019-04-11T21:29:11.422Z,7.00
2019-04-11T21:31:41.699Z,7.40
2019-04-11T21:34:11.986Z,6.25
2019-04-11T21:36:42.257Z,6.37
2019-04-11T21:39:12.536Z,9.18
2019-04-11T21:41:45.254Z,7.00
2019-04-11T21:44:14.843Z,5.85
2019-04-11T21:46:45.108Z,7.72
2019-04-11T21:49:15.374Z,6.40
2019-04-11T21:51:45.660Z,7.07
2019-04-11T21:54:15.918Z,7.47
2019-04-11T21:56:49.318Z,7.35
2019-04-11T21:59:20.426Z,8.90
2019-04-11T22:01:54.219Z,8.48
2019-04-11T22:04:26.901Z,6.08
2019-04-11T22:06:56.329Z,6.15
2019-04-11T22:09:26.608Z,5.73
2019-04-11T22:11:56.963Z,7.83
2019-04-11T22:14:27.235Z,9.25
2019-04-11T22:16:57.512Z,8.10
2019-04-11T22:19:27.787Z,9.40
2019-04-11T22:21:59.982Z,6.13
2019-04-11T22:24:30.256Z,6.15
2019-04-11T22:27:00.529Z,8.03
2019-04-11T22:29:30.796Z,7.42
2019-04-11T22:32:01.382Z,8.17
2019-04-11T22:34:36.143Z,7.37
2019-04-11T22:37:07.378Z,6.43
2019-04-11T22:39:37.653Z,10.78
2019-04-11T22:42:08.060Z,6.55
2019-04-11T22:44:38.685Z,7.28
2019-04-11T22:47:08.986Z,5.94
2019-04-11T22:49:39.990Z,5.65
2019-04-11T22:52:11.410Z,6.33
2019-04-11T22:54:42.796Z,7.85
2019-04-11T22:57:13.060Z,6.58
2019-04-11T22:59:45.067Z,6.30
2019-04-11T23:02:18.281Z,8.40
2019-04-11T23:04:49.248Z,5.45
2019-04-11T23:07:19.517Z,6.75
2019-04-11T23:09:49.818Z,10.85
2019-04-11T23:12:20.091Z,9.18
2019-04-11T23:14:50.364Z,6.25
2019-04-11T23:17:20.636Z,9.50
2019-04-11T23:19:50.931Z,10.50
2019-04-11T23:22:21.202Z,6.47
2019-04-11T23:24:51.464Z,6.78
2019-04-11T23:27:21.737Z,6.57
2019-04-11T23:29:52.445Z,5.62
2019-04-11T23:32:22.791Z,5.85
2019-04-11T23:34:53.382Z,7.28
2019-04-11T23:37:23.708Z,5.75
2019-04-11T23:39:53.972Z,7.47
2019-04-11T23:42:24.264Z,6.37
2019-04-11T23:44:54.528Z,6.40
2019-04-11T23:47:24.827Z,5.72
2019-04-11T23:49:56.057Z,8.45
2019-04-11T23:52:27.411Z,6.80
2019-04-11T23:54:58.293Z,9.50
2019-04-11T23:57:31.210Z,6.22
